Time,TemperatureF,DewpointF,PressureIn,WindDirection,WindDirectionDegrees,WindSpeedMPH,WindSpeedGustMPH,Humidity,HourlyPrecipIn,Conditions,Clouds,dailyrainin,SoftwareType,DateUTC
2013-08-03 00:02:00,62.0,51.0,30.08,NW,307,0.0,0.0,68,0.00,,,0.00,,2013-08-03 05:02:00,
2013-08-03 00:12:00,61.0,51.0,30.08,NW,307,0.0,0.0,70,0.00,,,0.00,,2013-08-03 05:12:00,
2013-08-03 00:22:00,60.0,50.0,30.08,NW,307,0.0,0.0,69,0.00,,,0.00,,2013-08-03 05:22:00,
2013-08-03 00:32:00,60.0,51.0,30.08,NW,307,0.0,0.0,71,0.00,,,0.00,,2013-08-03 05:32:00,
2013-08-03 00:42:00,60.0,51.0,30.08,NW,307,0.0,0.0,72,0.00,,,0.00,,2013-08-03 05:42:00,
2013-08-03 00:52:00,59.0,50.0,30.08,NW,307,0.0,0.0,71,0.00,,,0.00,,2013-08-03 05:52:00,
2013-08-03 01:02:00,59.0,51.0,30.08,NW,307,0.0,0.0,74,0.00,,,0.00,,2013-08-03 06:02:00,
2013-08-03 01:12:00,59.0,51.0,30.08,NW,307,0.0,0.0,74,0.00,,,0.00,,2013-08-03 06:12:00,
2013-08-03 01:22:00,59.0,51.0,30.08,NW,307,0.0,0.0,74,0.00,,,0.00,,2013-08-03 06:22:00,
2013-08-03 01:32:00,58.0,51.0,30.08,NW,307,0.0,0.0,77,0.00,,,0.00,,2013-08-03 06:32:00,
2013-08-03 01:42:00,58.0,51.0,30.08,NW,307,0.0,0.0,77,0.00,,,0.00,,2013-08-03 06:42:00,
2013-08-03 01:52:00,57.0,50.0,30.08,NW,307,0.0,0.0,78,0.00,,,0.00,,2013-08-03 06:52:00,
2013-08-03 02:02:00,57.0,52.0,30.08,NW,307,0.0,0.0,82,0.00,,,0.00,,2013-08-03 07:02:00,
2013-08-03 02:12:00,57.0,52.0,30.08,NW,307,0.0,0.0,82,0.00,,,0.00,,2013-08-03 07:12:00,
2013-08-03 02:22:00,57.0,52.0,30.08,NW,307,0.0,0.0,82,0.00,,,0.00,,2013-08-03 07:22:00,
2013-08-03 02:32:00,57.0,52.0,30.08,NW,307,0.0,0.0,82,0.00,,,0.00,,2013-08-03 07:32:00,
2013-08-03 02:43:00,56.0,51.0,30.11,NW,307,0.0,0.0,83,0.00,,,0.00,,2013-08-03 07:43:00,
2013-08-03 02:53:00,56.0,51.0,30.11,NW,307,0.0,0.0,83,0.00,,,0.00,,2013-08-03 07:53:00,
2013-08-03 03:02:00,56.0,51.0,30.11,NW,307,0.0,0.0,83,0.00,,,0.00,,2013-08-03 08:02:00,
2013-08-03 03:12:00,56.0,51.0,30.11,NW,307,0.0,0.0,83,0.00,,,0.00,,2013-08-03 08:12:00,
2013-08-03 03:22:00,56.0,52.0,30.11,NW,307,0.0,0.0,85,0.00,,,0.00,,2013-08-03 08:22:00,
2013-08-03 03:32:00,56.0,52.0,30.11,NW,307,0.0,0.0,85,0.00,,,0.00,,2013-08-03 08:32:00,
2013-08-03 03:43:00,56.0,52.0,30.11,NW,307,0.0,0.0,85,0.00,,,0.00,,2013-08-03 08:43:00,
2013-08-03 03:52:00,55.0,51.0,30.11,NW,307,0.0,0.0,85,0.00,,,0.00,,2013-08-03 08:52:00,
2013-08-03 04:02:00,55.0,51.0,30.11,NW,307,0.0,0.0,85,0.00,,,0.00,,2013-08-03 09:02:00,
2013-08-03 04:12:00,55.0,51.0,30.11,NW,307,0.0,0.0,85,0.00,,,0.00,,2013-08-03 09:12:00,
2013-08-03 04:22:00,55.0,51.0,30.11,NW,307,0.0,0.0,85,0.00,,,0.00,,2013-08-03 09:22:00,
2013-08-03 04:32:00,55.0,51.0,30.11,NW,307,0.0,0.0,85,0.00,,,0.00,,2013-08-03 09:32:00,
2013-08-03 04:43:00,55.0,51.0,30.11,NW,307,0.0,0.0,85,0.00,,,0.00,,2013-08-03 09:43:00,
2013-08-03 04:53:00,55.0,51.0,30.11,NW,307,0.0,0.0,85,0.00,,,0.00,,2013-08-03 09:53:00,
2013-08-03 05:02:00,54.0,50.0,30.11,NW,307,0.0,0.0,85,0.00,,,0.00,,2013-08-03 10:02:00,
2013-08-03 05:12:00,54.0,50.0,30.11,NW,307,0.0,0.0,86,0.00,,,0.00,,2013-08-03 10:12:00,
2013-08-03 05:22:00,54.0,50.0,30.11,NW,307,0.0,0.0,86,0.00,,,0.00,,2013-08-03 10:22:00,
2013-08-03 05:32:00,53.0,49.0,30.11,NW,307,0.0,0.0,87,0.00,,,0.00,,2013-08-03 10:32:00,
2013-08-03 05:42:00,53.0,49.0,30.11,NW,307,0.0,0.0,87,0.00,,,0.00,,2013-08-03 10:42:00,
2013-08-03 05:53:00,53.0,49.0,30.11,NW,307,0.0,0.0,87,0.00,,,0.00,,2013-08-03 10:53:00,
2013-08-03 06:02:00,53.0,50.0,30.11,NW,307,0.0,0.0,88,0.00,,,0.00,,2013-08-03 11:02:00,
2013-08-03 06:12:00,53.0,50.0,30.14,NW,307,0.0,0.0,88,0.00,,,0.00,,2013-08-03 11:12:00,
2013-08-03 06:22:00,53.0,50.0,30.14,NW,307,0.0,0.0,88,0.00,,,0.00,,2013-08-03 11:22:00,
2013-08-03 06:32:00,53.0,50.0,30.14,NW,307,0.0,0.0,89,0.00,,,0.00,,2013-08-03 11:32:00,
2013-08-03 06:43:00,53.0,50.0,30.14,NW,307,0.0,0.0,89,0.00,,,0.00,,2013-08-03 11:43:00,
2013-08-03 06:53:00,53.0,50.0,30.14,NW,307,0.0,0.0,89,0.00,,,0.00,,2013-08-03 11:53:00,
2013-08-03 07:02:00,54.0,51.0,30.14,NW,307,0.0,0.0,90,0.00,,,0.00,,2013-08-03 12:02:00,
2013-08-03 07:12:00,54.0,51.0,30.14,NW,307,0.0,0.0,90,0.00,,,0.00,,2013-08-03 12:12:00,
2013-08-03 07:22:00,54.0,51.0,30.14,NW,307,0.0,0.0,90,0.00,,,0.00,,2013-08-03 12:22:00,
2013-08-03 07:33:00,54.0,51.0,30.14,NW,307,0.0,0.0,90,0.00,,,0.00,,2013-08-03 12:33:00,
2013-08-03 07:43:00,55.0,52.0,30.14,NW,307,0.0,0.0,91,0.00,,,0.00,,2013-08-03 12:43:00,
2013-08-03 07:52:00,55.0,52.0,30.14,NW,307,0.0,0.0,91,0.00,,,0.00,,2013-08-03 12:52:00,
2013-08-03 08:02:00,57.0,54.0,30.14,NW,307,0.0,0.0,91,0.00,,,0.00,,2013-08-03 13:02:00,
2013-08-03 08:12:00,58.0,55.0,30.14,NW,307,0.0,0.0,90,0.00,,,0.00,,2013-08-03 13:12:00,
2013-08-03 08:22:00,58.0,55.0,30.14,NW,307,0.0,0.0,90,0.00,,,0.00,,2013-08-03 13:22:00,
2013-08-03 08:33:00,60.0,56.0,30.16,NW,307,0.0,0.0,88,0.00,,,0.00,,2013-08-03 13:33:00,
2013-08-03 08:43:00,61.0,56.0,30.16,NW,307,0.0,0.0,83,0.00,,,0.00,,2013-08-03 13:43:00,
2013-08-03 08:52:00,62.0,52.0,30.16,NW,307,0.0,0.0,71,0.00,,,0.00,,2013-08-03 13:52:00,
2013-08-03 09:02:00,63.0,52.0,30.16,NW,307,0.0,0.0,68,0.00,,,0.00,,2013-08-03 14:02:00,
2013-08-03 09:22:00,66.0,49.0,30.16,NW,307,0.0,0.0,54,0.00,,,0.00,,2013-08-03 14:22:00,
2013-08-03 09:33:00,67.0,50.0,30.16,NW,307,0.0,0.0,54,0.00,,,0.00,,2013-08-03 14:33:00,
2013-08-03 09:42:00,68.0,50.0,30.16,NW,307,0.0,0.0,52,0.00,,,0.00,,2013-08-03 14:42:00,
2013-08-03 09:52:00,69.0,50.0,30.16,NW,307,0.0,0.0,50,0.00,,,0.00,,2013-08-03 14:52:00,
2013-08-03 11:43:00,74.0,41.0,30.19,NE,47,0.0,0.0,31,0.00,,,0.00,,2013-08-03 16:43:00,
2013-08-03 11:53:00,75.0,41.0,30.19,NE,47,0.0,0.0,30,0.00,,,0.00,,2013-08-03 16:53:00,
2013-08-03 12:03:00,76.0,43.0,30.19,NE,47,0.0,0.0,31,0.00,,,0.00,,2013-08-03 17:03:00,
2013-08-03 12:12:00,76.0,43.0,30.19,NE,47,0.0,0.0,31,0.00,,,0.00,,2013-08-03 17:12:00,
2013-08-03 12:22:00,76.0,43.0,30.19,NE,47,0.0,0.0,31,0.00,,,0.00,,2013-08-03 17:22:00,
2013-08-03 12:32:00,76.0,43.0,30.19,NE,47,0.0,0.0,31,0.00,,,0.00,,2013-08-03 17:32:00,
2013-08-03 12:43:00,76.0,43.0,30.19,NE,47,0.0,0.0,31,0.00,,,0.00,,2013-08-03 17:43:00,
2013-08-03 12:52:00,76.0,42.0,30.19,NE,47,0.0,0.0,30,0.00,,,0.00,,2013-08-03 17:52:00,
2013-08-03 13:02:00,77.0,42.0,30.19,North,8,0.0,0.0,29,0.00,,,0.00,,2013-08-03 18:02:00,
2013-08-03 13:12:00,77.0,42.0,30.19,North,8,0.0,0.0,29,0.00,,,0.00,,2013-08-03 18:12:00,
2013-08-03 13:22:00,75.0,42.0,30.19,North,8,0.0,0.0,31,0.00,,,0.00,,2013-08-03 18:22:00,
2013-08-03 13:32:00,75.0,42.0,30.19,North,8,0.0,0.0,31,0.00,,,0.00,,2013-08-03 18:32:00,
2013-08-03 13:43:00,75.0,42.0,30.19,North,8,0.0,0.0,31,0.00,,,0.00,,2013-08-03 18:43:00,
2013-08-03 13:53:00,78.0,44.0,30.19,WNW,299,6.0,6.0,30,0.00,,,0.00,,2013-08-03 18:53:00,
2013-08-03 14:02:00,76.0,43.0,30.19,WNW,299,6.0,6.0,31,0.00,,,0.00,,2013-08-03 19:02:00,
2013-08-03 14:12:00,76.0,43.0,30.19,WNW,299,6.0,6.0,31,0.00,,,0.00,,2013-08-03 19:12:00,
2013-08-03 14:22:00,77.0,43.0,30.19,WNW,288,4.0,4.0,30,0.00,,,0.00,,2013-08-03 19:22:00,
2013-08-03 14:32:00,77.0,43.0,30.19,WNW,288,4.0,4.0,30,0.00,,,0.00,,2013-08-03 19:32:00,
2013-08-03 14:42:00,77.0,43.0,30.19,WNW,288,4.0,4.0,30,0.00,,,0.00,,2013-08-03 19:42:00,
2013-08-03 14:53:00,78.0,44.0,30.19,WNW,288,4.0,4.0,30,0.00,,,0.00,,2013-08-03 19:53:00,
2013-08-03 15:02:00,77.0,43.0,30.19,WNW,288,4.0,4.0,30,0.00,,,0.00,,2013-08-03 20:02:00,
2013-08-03 15:12:00,77.0,44.0,30.16,WNW,288,4.0,4.0,31,0.00,,,0.00,,2013-08-03 20:12:00,
2013-08-03 15:22:00,79.0,45.0,30.16,WNW,288,4.0,4.0,30,0.00,,,0.00,,2013-08-03 20:22:00,
2013-08-03 15:32:00,79.0,44.0,30.16,WNW,288,4.0,4.0,29,0.00,,,0.00,,2013-08-03 20:32:00,
2013-08-03 15:42:00,79.0,44.0,30.16,WNW,288,4.0,4.0,29,0.00,,,0.00,,2013-08-03 20:42:00,
2013-08-03 15:52:00,79.0,44.0,30.16,WNW,288,4.0,4.0,29,0.00,,,0.00,,2013-08-03 20:52:00,
2013-08-03 16:02:00,77.0,42.0,30.16,WNW,288,4.0,4.0,29,0.00,,,0.00,,2013-08-03 21:02:00,
2013-08-03 16:12:00,76.0,43.0,30.16,WNW,288,4.0,4.0,31,0.00,,,0.00,,2013-08-03 21:12:00,
2013-08-03 16:22:00,76.0,42.0,30.16,WNW,288,4.0,4.0,30,0.00,,,0.00,,2013-08-03 21:22:00,
2013-08-03 16:32:00,77.0,44.0,30.16,WNW,288,4.0,4.0,31,0.00,,,0.00,,2013-08-03 21:32:00,
2013-08-03 16:42:00,77.0,44.0,30.16,WNW,288,4.0,4.0,31,0.00,,,0.00,,2013-08-03 21:42:00,
2013-08-03 16:52:00,76.0,42.0,30.16,WNW,288,4.0,4.0,30,0.00,,,0.00,,2013-08-03 21:52:00,
2013-08-03 17:02:00,76.0,43.0,30.16,WNW,288,4.0,4.0,31,0.00,,,0.00,,2013-08-03 22:02:00,
2013-08-03 17:12:00,78.0,44.0,30.16,WNW,288,4.0,4.0,30,0.00,,,0.00,,2013-08-03 22:12:00,
2013-08-03 17:22:00,78.0,42.0,30.16,WNW,288,4.0,4.0,28,0.00,,,0.00,,2013-08-03 22:22:00,
2013-08-03 17:33:00,76.0,42.0,30.16,WNW,288,4.0,4.0,30,0.00,,,0.00,,2013-08-03 22:33:00,
2013-08-03 17:43:00,75.0,41.0,30.16,WNW,288,4.0,4.0,30,0.00,,,0.00,,2013-08-03 22:43:00,
2013-08-03 17:52:00,76.0,42.0,30.16,WNW,288,4.0,4.0,30,0.00,,,0.00,,2013-08-03 22:52:00,
2013-08-03 18:02:00,76.0,42.0,30.16,WNW,288,4.0,4.0,30,0.00,,,0.00,,2013-08-03 23:02:00,
2013-08-03 18:12:00,75.0,42.0,30.16,WNW,288,4.0,4.0,31,0.00,,,0.00,,2013-08-03 23:12:00,
2013-08-03 18:22:00,76.0,43.0,30.16,WNW,288,4.0,4.0,31,0.00,,,0.00,,2013-08-03 23:22:00,
2013-08-03 18:32:00,75.0,42.0,30.16,WNW,288,4.0,4.0,31,0.00,,,0.00,,2013-08-03 23:32:00,
2013-08-03 18:42:00,73.0,41.0,30.16,WNW,288,4.0,4.0,31,0.00,,,0.00,,2013-08-03 23:42:00,
2013-08-03 18:52:00,72.0,41.0,30.16,WNW,288,4.0,4.0,33,0.00,,,0.00,,2013-08-03 23:52:00,
2013-08-03 19:02:00,72.0,41.0,30.16,WNW,288,4.0,4.0,33,0.00,,,0.00,,2013-08-04 00:02:00,
2013-08-03 19:12:00,72.0,41.0,30.16,WNW,288,4.0,4.0,33,0.00,,,0.00,,2013-08-04 00:12:00,
2013-08-03 19:22:00,73.0,42.0,30.16,WNW,288,4.0,4.0,33,0.00,,,0.00,,2013-08-04 00:22:00,
2013-08-03 19:32:00,72.0,42.0,30.16,WNW,288,4.0,4.0,34,0.00,,,0.00,,2013-08-04 00:32:00,
2013-08-03 19:42:00,72.0,42.0,30.16,WNW,288,4.0,4.0,34,0.00,,,0.00,,2013-08-04 00:42:00,
2013-08-03 19:53:00,71.0,42.0,30.16,WNW,288,4.0,4.0,35,0.00,,,0.00,,2013-08-04 00:53:00,
2013-08-03 20:02:00,71.0,43.0,30.16,WNW,288,4.0,4.0,36,0.00,,,0.00,,2013-08-04 01:02:00,
2013-08-03 20:53:00,69.0,43.0,30.16,WNW,288,4.0,4.0,39,0.00,,,0.00,,2013-08-04 01:53:00,
2013-08-03 21:02:00,69.0,43.0,30.16,WNW,288,4.0,4.0,39,0.00,,,0.00,,2013-08-04 02:02:00,
2013-08-03 21:12:00,69.0,43.0,30.16,WNW,288,4.0,4.0,39,0.00,,,0.00,,2013-08-04 02:12:00,
2013-08-03 21:52:00,65.0,46.0,30.19,WNW,288,4.0,4.0,51,0.00,,,0.00,,2013-08-04 02:52:00,
2013-08-03 22:02:00,64.0,45.0,30.19,WNW,288,4.0,4.0,51,0.00,,,0.00,,2013-08-04 03:02:00,
2013-08-03 22:12:00,64.0,46.0,30.19,WNW,288,4.0,4.0,52,0.00,,,0.00,,2013-08-04 03:12:00,
2013-08-03 22:22:00,64.0,46.0,30.19,WNW,288,4.0,4.0,52,0.00,,,0.00,,2013-08-04 03:22:00,